Airfield :
LOGIN :

Register | Disclaimer

   EN    FR    IT 

 










Legend :    VFR   Marginal VFR   IFR   Intensive IFR   Very Intensive IFR
Visi :
Ceiling :
>= 8 km
>= 3000ft
5 to 8 km
1000 to 3000 ft
1500m to 5 km
500 to 1000 ft
800 to 1500m
200 to 500 ft
< 800m
< 200 ft
Symbols :   Thunderstorms  Fog  Heavy snow  Heavy precipitations  Wind > 20 kt
SIGMETs :     Misc.  Thunderstorms  Icing  Turbulence  Mountain Waves  Volcanic Ashes







- Airport Elevation : 274 ft
- IATA code : PUY


LDPL - Pula

CURRENT METAR :
  • 221200Z 14011KT 110V190 9999 FEW025 17/11 Q1014 NOSIG

EXPIRED METARs :
  • 221130Z 14009KT 080V210 9999 FEW025 18/12 Q1014 NOSIG
  • 221100Z 14010KT 090V180 9999 FEW025 17/11 Q1015 NOSIG
  • 221030Z 10010KT 080V140 9999 FEW025 17/10 Q1015 NOSIG
  • 221000Z 11009KT 060V180 9999 FEW025 17/10 Q1015 NOSIG
  • 220930Z 09011KT 070V130 9999 FEW020 17/11 Q1015 NOSIG

TAF TAF LDPL
Valid from the 22 at 12:00 until the 23 at 12:00 UTC


221125Z 2212/2312 12012KT 9999 SCT025 TX18/2212Z TN12/2304Z
TEMPO 2216/2312 12015G25KT
TEMPO 2223/2306 4000 RA BKN012 OVC030
PROB30
TEMPO 2303/2309 SHRA FEW020TCU BKN030
No reported NOTAMs for that airfield.



MET'MAP, your aeronautical weather chart ! - Copyright ORBIFLY December 2007 - Disclaimer

ORBIFLY MET'MAP TEAM :

Programming & Development : Alexandra Zaïnal
Concept & Development : Baudouin d'Aumeries
Co-Development & Prog : Marc-Olivier Méhu
Technical & hardware support : Manuel Goepfert

Contact : metmap@orbifly.com




SOURCES & CREDITS :

   NOAA